createdAt,value
2022-10-14T00:00:18.141Z,14.80
2022-10-14T00:03:04.074Z,14.70
2022-10-14T00:05:49.759Z,14.80
2022-10-14T00:08:35.450Z,14.70
2022-10-14T00:11:24.854Z,14.70
2022-10-14T00:14:17.094Z,14.60
2022-10-14T00:17:02.528Z,14.70
2022-10-14T00:19:48.406Z,14.60
2022-10-14T00:22:34.054Z,14.60
2022-10-14T00:25:19.866Z,14.60
2022-10-14T00:28:06.370Z,14.60
2022-10-14T00:30:59.945Z,14.60
2022-10-14T00:33:45.923Z,14.60
2022-10-14T00:36:31.939Z,14.60
2022-10-14T00:39:17.758Z,14.60
2022-10-14T00:42:03.587Z,14.60
2022-10-14T00:45:00.016Z,14.50
2022-10-14T00:47:46.305Z,14.50
2022-10-14T00:50:33.528Z,14.40
2022-10-14T00:53:20.730Z,14.30
2022-10-14T00:56:09.434Z,14.30
2022-10-14T00:58:55.842Z,14.30
2022-10-14T01:01:41.397Z,14.20
2022-10-14T01:04:27.630Z,14.20
2022-10-14T01:07:30.695Z,14.20
2022-10-14T01:10:42.570Z,14.20
2022-10-14T01:13:31.620Z,14.20
2022-10-14T01:16:40.328Z,14.10
2022-10-14T01:19:53.201Z,14.10
2022-10-14T01:22:45.526Z,14.10
2022-10-14T01:25:43.007Z,14.10
2022-10-14T01:29:02.410Z,14.10
2022-10-14T01:31:52.845Z,14.10
2022-10-14T01:34:51.324Z,14.00
2022-10-14T01:37:45.272Z,14.00
2022-10-14T01:40:42.689Z,14.00
2022-10-14T01:43:31.961Z,14.00
2022-10-14T01:46:20.259Z,14.00
2022-10-14T01:49:19.829Z,14.00
2022-10-14T01:52:22.751Z,14.00
2022-10-14T01:55:15.395Z,14.10
2022-10-14T01:58:01.712Z,14.10
2022-10-14T02:00:48.121Z,14.10
2022-10-14T02:03:45.101Z,14.10
2022-10-14T02:06:35.275Z,14.10
2022-10-14T02:09:41.625Z,14.10
2022-10-14T02:12:53.335Z,14.10
2022-10-14T02:16:06.279Z,14.10
2022-10-14T02:19:08.760Z,13.00
2022-10-14T02:22:04.214Z,14.10
2022-10-14T02:24:55.769Z,14.10
2022-10-14T02:27:44.698Z,14.10
2022-10-14T02:30:34.128Z,14.10
2022-10-14T02:33:26.905Z,14.10
2022-10-14T02:36:16.930Z,14.10
2022-10-14T02:39:03.998Z,14.10
2022-10-14T02:41:49.273Z,14.10
2022-10-14T02:44:34.877Z,14.00
2022-10-14T02:47:20.922Z,14.00
2022-10-14T02:50:09.392Z,14.00
2022-10-14T02:52:55.066Z,14.00
2022-10-14T02:55:40.624Z,13.90
2022-10-14T02:58:26.337Z,13.80
2022-10-14T03:01:13.808Z,13.80
2022-10-14T03:03:59.542Z,13.80
2022-10-14T03:06:45.343Z,13.70
2022-10-14T03:09:31.997Z,13.70
2022-10-14T03:12:18.034Z,13.60
2022-10-14T03:15:04.513Z,13.60
2022-10-14T03:17:51.999Z,13.50
2022-10-14T03:20:46.224Z,13.60
2022-10-14T03:23:37.674Z,13.60
2022-10-14T03:26:23.909Z,13.50
2022-10-14T03:29:10.738Z,13.40
2022-10-14T03:32:13.827Z,13.40
2022-10-14T03:35:19.529Z,13.40
2022-10-14T03:38:07.598Z,13.40
2022-10-14T03:40:54.178Z,13.40
2022-10-14T03:43:39.666Z,13.40
2022-10-14T03:46:25.677Z,13.40
2022-10-14T03:49:12.814Z,13.40
2022-10-14T03:51:58.651Z,13.40
2022-10-14T03:54:47.562Z,13.40
2022-10-14T03:57:35.402Z,13.40
2022-10-14T04:00:23.273Z,13.40
2022-10-14T04:03:19.824Z,13.40
2022-10-14T04:06:05.966Z,13.40
2022-10-14T04:08:51.986Z,13.40
2022-10-14T04:11:46.661Z,13.40
2022-10-14T04:15:02.735Z,13.40
2022-10-14T04:17:56.852Z,13.40
2022-10-14T04:20:42.640Z,13.40
2022-10-14T04:23:29.675Z,13.40
2022-10-14T04:26:21.693Z,13.40
2022-10-14T04:29:07.291Z,13.40
2022-10-14T04:32:00.814Z,13.40
2022-10-14T04:34:48.174Z,13.40
2022-10-14T04:37:37.451Z,13.30
2022-10-14T04:40:30.839Z,13.30
2022-10-14T04:43:17.447Z,13.30
2022-10-14T04:46:03.010Z,13.30
2022-10-14T04:48:48.938Z,13.30
2022-10-14T04:51:35.754Z,13.30
2022-10-14T04:54:21.401Z,13.30
2022-10-14T04:57:13.141Z,13.20
2022-10-14T05:00:00.434Z,13.20
2022-10-14T05:03:01.286Z,13.20
2022-10-14T05:05:52.530Z,13.20
2022-10-14T05:08:39.157Z,13.30
2022-10-14T05:11:27.873Z,13.30
2022-10-14T05:14:15.583Z,13.30
2022-10-14T05:17:04.569Z,13.30
2022-10-14T05:19:52.716Z,13.30
2022-10-14T05:22:41.076Z,13.30
2022-10-14T05:25:27.125Z,13.30
2022-10-14T05:28:13.826Z,13.20
2022-10-14T05:31:02.229Z,13.20
2022-10-14T05:33:50.057Z,13.10
2022-10-14T05:36:35.701Z,13.10
2022-10-14T05:39:21.499Z,13.10
2022-10-14T05:42:07.186Z,13.10
2022-10-14T05:44:53.916Z,13.00
2022-10-14T05:47:40.013Z,13.10
2022-10-14T05:50:33.142Z,13.10
2022-10-14T05:53:24.204Z,13.10
2022-10-14T05:56:14.368Z,13.10
2022-10-14T05:59:00.061Z,13.10
2022-10-14T06:01:46.923Z,13.20
2022-10-14T06:04:32.851Z,13.20
2022-10-14T06:07:19.026Z,13.30
2022-10-14T06:10:10.053Z,13.40
2022-10-14T06:12:57.629Z,13.40
2022-10-14T06:15:45.594Z,13.50
2022-10-14T06:18:31.432Z,13.80
2022-10-14T06:21:17.587Z,14.30
2022-10-14T06:24:03.450Z,14.80
2022-10-14T06:26:49.273Z,15.20
2022-10-14T06:29:38.043Z,15.40
2022-10-14T06:32:24.320Z,15.30
2022-10-14T06:35:10.754Z,15.20
2022-10-14T06:37:56.347Z,15.40
2022-10-14T06:40:42.092Z,16.00
2022-10-14T06:43:28.104Z,16.40
2022-10-14T06:46:14.236Z,17.00
2022-10-14T06:48:59.975Z,17.60
2022-10-14T06:51:45.687Z,17.80
2022-10-14T06:54:34.458Z,17.60
2022-10-14T06:57:22.523Z,17.50
2022-10-14T07:00:09.054Z,17.50
2022-10-14T07:02:54.819Z,17.40
2022-10-14T07:05:40.324Z,17.30
2022-10-14T07:08:26.029Z,17.30
2022-10-14T07:11:11.898Z,17.10
2022-10-14T07:13:57.757Z,17.00
2022-10-14T07:16:44.101Z,16.90
2022-10-14T07:19:29.936Z,16.90
2022-10-14T07:22:17.403Z,17.00
2022-10-14T07:25:04.840Z,17.00
2022-10-14T07:27:53.284Z,17.30
2022-10-14T07:30:39.018Z,17.40
2022-10-14T07:33:24.995Z,17.50
2022-10-14T07:36:15.150Z,17.60
2022-10-14T07:39:05.818Z,17.70
2022-10-14T07:41:51.814Z,17.70
2022-10-14T07:44:39.838Z,17.70
2022-10-14T07:47:25.701Z,17.70
2022-10-14T07:50:11.352Z,17.80
2022-10-14T07:53:01.060Z,17.80
2022-10-14T07:55:53.230Z,17.70
2022-10-14T07:58:43.567Z,17.70
2022-10-14T08:01:30.058Z,17.80
2022-10-14T08:04:16.375Z,18.00
2022-10-14T08:07:03.904Z,18.10
2022-10-14T08:09:49.694Z,18.20
2022-10-14T08:12:35.291Z,18.30
2022-10-14T08:15:21.119Z,18.30
2022-10-14T08:18:09.191Z,18.40
2022-10-14T08:20:55.049Z,18.40
2022-10-14T08:23:40.718Z,18.40
2022-10-14T08:26:38.272Z,18.50
2022-10-14T08:29:23.921Z,18.50
2022-10-14T08:32:09.524Z,18.50
2022-10-14T08:34:56.031Z,18.50
2022-10-14T08:37:42.139Z,18.60
2022-10-14T08:40:44.020Z,18.60
2022-10-14T08:43:41.621Z,18.70
2022-10-14T08:46:36.464Z,18.80
2022-10-14T08:49:28.158Z,18.90
2022-10-14T08:52:26.655Z,19.00
2022-10-14T08:55:27.722Z,19.00
2022-10-14T08:58:21.544Z,19.00
2022-10-14T09:01:22.599Z,19.00
2022-10-14T09:04:13.712Z,19.00
2022-10-14T09:07:00.072Z,19.20
2022-10-14T09:09:50.579Z,19.30
2022-10-14T09:12:36.729Z,19.30
2022-10-14T09:15:36.274Z,19.30
2022-10-14T09:18:34.611Z,19.30
2022-10-14T09:21:52.967Z,19.20
2022-10-14T09:24:39.566Z,19.20
2022-10-14T09:27:25.690Z,19.10
2022-10-14T09:30:17.135Z,19.10
2022-10-14T09:33:03.829Z,19.20
2022-10-14T09:35:49.685Z,19.20
2022-10-14T09:38:37.412Z,19.20
2022-10-14T09:41:30.334Z,19.20
2022-10-14T09:44:26.298Z,19.20
2022-10-14T09:47:14.673Z,19.30
2022-10-14T09:50:00.961Z,19.30
2022-10-14T09:52:52.425Z,19.40
2022-10-14T09:55:46.787Z,19.50
2022-10-14T09:58:35.940Z,19.60
2022-10-14T10:01:24.542Z,19.70
2022-10-14T10:04:32.209Z,19.70
2022-10-14T10:07:26.804Z,19.80
2022-10-14T10:10:21.956Z,19.90
2022-10-14T10:13:32.476Z,20.00
2022-10-14T10:16:34.787Z,20.00
2022-10-14T10:19:31.027Z,20.10
2022-10-14T10:25:10.229Z,20.20
2022-10-14T10:28:00.048Z,20.40
2022-10-14T10:31:02.977Z,20.40
2022-10-14T10:33:58.217Z,20.40
2022-10-14T10:36:50.911Z,20.60
2022-10-14T10:39:48.874Z,20.70
2022-10-14T10:42:48.811Z,20.70
2022-10-14T10:45:49.104Z,20.80
2022-10-14T10:49:12.056Z,20.90
2022-10-14T10:52:16.092Z,21.00
2022-10-14T10:55:26.197Z,21.10
2022-10-14T10:58:38.827Z,21.10
2022-10-14T11:01:55.471Z,21.10
2022-10-14T11:04:53.431Z,21.10
2022-10-14T11:08:10.212Z,21.10
2022-10-14T11:11:51.906Z,21.10
2022-10-14T11:15:08.341Z,21.00
2022-10-14T11:18:28.924Z,20.90
2022-10-14T11:21:32.569Z,20.90
2022-10-14T11:24:41.916Z,21.00
2022-10-14T11:27:33.828Z,21.20
2022-10-14T11:30:22.630Z,21.20
2022-10-14T11:33:30.111Z,21.20
2022-10-14T11:36:44.480Z,21.30
2022-10-14T11:39:44.014Z,21.40
2022-10-14T11:42:48.518Z,21.40
2022-10-14T11:45:56.684Z,21.50
2022-10-14T11:48:51.232Z,21.50
2022-10-14T11:51:42.872Z,21.60
2022-10-14T11:54:37.350Z,21.70
2022-10-14T11:57:48.875Z,21.70
2022-10-14T12:00:37.110Z,21.60
2022-10-14T12:03:50.789Z,21.60
2022-10-14T12:06:42.237Z,21.50
2022-10-14T12:09:46.528Z,21.50
2022-10-14T12:12:34.291Z,21.60
2022-10-14T12:15:23.287Z,21.60
2022-10-14T12:18:12.306Z,21.60
2022-10-14T12:21:37.913Z,21.60
2022-10-14T12:24:30.708Z,21.50
2022-10-14T12:27:18.765Z,21.40
2022-10-14T12:30:05.057Z,21.40
2022-10-14T12:33:05.932Z,21.40
2022-10-14T12:35:52.790Z,21.40
2022-10-14T12:38:38.588Z,21.40
2022-10-14T12:41:37.072Z,21.40
2022-10-14T12:44:26.901Z,21.40
2022-10-14T12:47:21.311Z,21.50
2022-10-14T12:50:17.719Z,21.50
2022-10-14T12:53:37.101Z,21.50
2022-10-14T12:56:38.338Z,21.50
2022-10-14T12:59:48.563Z,21.50
2022-10-14T13:02:44.939Z,21.60
2022-10-14T13:05:35.698Z,21.70
2022-10-14T13:08:23.675Z,21.70
2022-10-14T13:11:28.196Z,21.70
2022-10-14T13:14:30.096Z,21.70
2022-10-14T13:17:30.861Z,21.70
2022-10-14T13:20:34.941Z,21.70
2022-10-14T13:23:47.382Z,21.80
2022-10-14T13:27:03.727Z,21.80
2022-10-14T13:29:55.034Z,21.70
2022-10-14T13:32:55.799Z,21.70
2022-10-14T13:36:01.877Z,21.70
2022-10-14T13:38:59.749Z,21.60
2022-10-14T13:41:46.890Z,21.60
2022-10-14T13:44:34.118Z,21.60
2022-10-14T13:47:21.991Z,21.50
2022-10-14T13:50:12.916Z,21.40
2022-10-14T13:53:05.415Z,21.40
2022-10-14T13:55:54.530Z,21.30
2022-10-14T13:58:41.934Z,21.30
2022-10-14T14:01:38.473Z,21.30
2022-10-14T14:04:30.626Z,21.30
2022-10-14T14:07:58.991Z,21.30
2022-10-14T14:10:27.718Z,21.30
2022-10-14T14:13:14.048Z,21.40
2022-10-14T14:15:59.661Z,21.40
2022-10-14T14:18:56.693Z,21.30
2022-10-14T14:22:12.586Z,21.30
2022-10-14T14:25:36.741Z,21.30
2022-10-14T14:28:32.769Z,21.30
2022-10-14T14:31:21.898Z,21.20
2022-10-14T14:34:07.755Z,21.20
2022-10-14T14:36:58.104Z,21.20
2022-10-14T14:40:00.568Z,21.10
2022-10-14T14:42:50.197Z,21.00
2022-10-14T14:45:43.230Z,21.00
2022-10-14T14:48:30.981Z,21.00
2022-10-14T14:51:17.917Z,21.00
2022-10-14T14:54:06.611Z,21.00
2022-10-14T14:57:06.950Z,20.90
2022-10-14T14:59:58.503Z,20.90
2022-10-14T15:02:54.038Z,20.90
2022-10-14T15:05:39.951Z,20.80
2022-10-14T15:08:28.165Z,20.80
2022-10-14T15:14:05.119Z,20.70
2022-10-14T15:16:54.347Z,20.60
2022-10-14T15:19:40.109Z,20.50
2022-10-14T15:22:36.657Z,20.40
2022-10-14T15:25:23.249Z,20.40
2022-10-14T15:28:32.467Z,20.30
2022-10-14T15:31:21.153Z,20.30
2022-10-14T15:34:17.575Z,20.30
2022-10-14T15:37:03.061Z,20.30
2022-10-14T15:40:03.513Z,20.30
2022-10-14T15:42:50.005Z,20.20
2022-10-14T15:45:36.824Z,20.20
2022-10-14T15:48:22.217Z,20.10
2022-10-14T15:51:12.327Z,20.10
2022-10-14T15:53:58.239Z,20.10
2022-10-14T15:56:43.858Z,20.00
2022-10-14T15:59:29.743Z,19.90
2022-10-14T16:02:23.053Z,19.80
2022-10-14T16:05:19.735Z,19.80
2022-10-14T16:08:13.779Z,19.80
2022-10-14T16:10:59.315Z,19.70
2022-10-14T16:13:44.773Z,19.70
2022-10-14T16:16:37.989Z,19.70
2022-10-14T16:19:24.534Z,19.60
2022-10-14T16:22:10.322Z,19.60
2022-10-14T16:24:57.317Z,19.50
2022-10-14T16:27:43.071Z,19.40
2022-10-14T16:30:28.680Z,19.40
2022-10-14T16:33:18.267Z,19.30
2022-10-14T16:36:06.919Z,19.20
2022-10-14T16:38:52.763Z,19.20
2022-10-14T16:41:38.851Z,19.10
2022-10-14T16:44:24.758Z,19.10
2022-10-14T16:47:16.305Z,19.10
2022-10-14T16:50:02.786Z,19.00
2022-10-14T16:53:07.393Z,19.00
2022-10-14T16:55:56.084Z,18.90
2022-10-14T16:58:41.569Z,18.90
2022-10-14T17:01:27.397Z,18.80
2022-10-14T17:04:13.826Z,18.80
2022-10-14T17:06:59.329Z,18.70
2022-10-14T17:09:45.249Z,18.70
2022-10-14T17:12:31.149Z,18.60
2022-10-14T17:15:16.627Z,18.60
2022-10-14T17:18:03.347Z,18.50
2022-10-14T17:20:49.120Z,18.50
2022-10-14T17:23:36.258Z,18.50
2022-10-14T17:26:21.898Z,18.40
2022-10-14T17:29:07.656Z,18.40
2022-10-14T17:31:53.185Z,18.30
2022-10-14T17:34:38.958Z,18.30
2022-10-14T17:40:25.355Z,18.20
2022-10-14T17:43:10.989Z,18.20
2022-10-14T17:49:00.270Z,18.10
2022-10-14T17:51:46.088Z,18.10
2022-10-14T17:54:31.722Z,18.00
2022-10-14T17:57:17.035Z,18.00
2022-10-14T18:00:03.044Z,18.00
2022-10-14T18:02:57.242Z,17.90
2022-10-14T18:05:46.527Z,17.90
2022-10-14T18:08:34.484Z,17.90
2022-10-14T18:11:24.575Z,17.90
2022-10-14T18:14:12.953Z,17.80
2022-10-14T18:17:02.601Z,17.90
2022-10-14T18:19:52.157Z,17.80
2022-10-14T18:22:38.446Z,17.90
2022-10-14T18:25:24.247Z,17.80
2022-10-14T18:28:10.146Z,17.90
2022-10-14T18:30:56.453Z,17.80
2022-10-14T18:33:43.785Z,17.90
2022-10-14T18:36:32.911Z,17.90
2022-10-14T18:39:20.470Z,17.90
2022-10-14T18:42:07.010Z,17.90
2022-10-14T18:44:52.790Z,17.90
2022-10-14T18:47:38.792Z,17.90
2022-10-14T18:50:25.781Z,17.90
2022-10-14T18:53:12.950Z,17.90
2022-10-14T18:56:00.924Z,17.90
2022-10-14T18:58:58.482Z,17.80
2022-10-14T19:01:45.831Z,17.80
2022-10-14T19:04:31.637Z,17.70
2022-10-14T19:07:18.338Z,17.70
2022-10-14T19:10:04.106Z,17.70
2022-10-14T19:12:50.723Z,17.60
2022-10-14T19:15:45.277Z,17.70
2022-10-14T19:18:35.194Z,17.60
2022-10-14T19:21:29.531Z,17.60
2022-10-14T19:24:16.033Z,17.70
2022-10-14T19:27:02.304Z,17.60
2022-10-14T19:29:49.076Z,17.60
2022-10-14T19:32:34.738Z,17.60
2022-10-14T19:35:21.851Z,17.60
2022-10-14T19:38:07.711Z,17.60
2022-10-14T19:41:02.003Z,17.60
2022-10-14T19:43:47.609Z,17.70
2022-10-14T19:46:34.435Z,17.70
2022-10-14T19:49:21.986Z,17.70
2022-10-14T19:52:08.559Z,17.70
2022-10-14T19:54:56.278Z,17.70
2022-10-14T19:57:45.362Z,17.70
2022-10-14T20:00:31.564Z,17.70
2022-10-14T20:03:17.433Z,17.70
2022-10-14T20:06:05.707Z,17.70
2022-10-14T20:08:52.328Z,17.70
2022-10-14T20:11:38.046Z,17.70
2022-10-14T20:14:24.246Z,17.70
2022-10-14T20:17:10.939Z,17.60
2022-10-14T20:19:59.797Z,17.60
2022-10-14T20:22:45.569Z,17.60
2022-10-14T20:25:33.199Z,17.60
2022-10-14T20:28:19.810Z,17.60
2022-10-14T20:31:12.765Z,17.60
2022-10-14T20:33:58.719Z,17.50
2022-10-14T20:36:44.271Z,17.60
2022-10-14T20:39:30.752Z,17.50
2022-10-14T20:42:19.425Z,17.40
2022-10-14T20:45:08.996Z,17.40
2022-10-14T20:47:54.614Z,17.40
2022-10-14T20:50:42.177Z,17.40
2022-10-14T20:53:29.016Z,17.40
2022-10-14T20:56:18.082Z,17.30
2022-10-14T20:59:08.134Z,17.30
2022-10-14T21:01:56.310Z,17.30
2022-10-14T21:04:42.743Z,17.20
2022-10-14T21:07:28.833Z,17.20
2022-10-14T21:10:15.529Z,17.10
2022-10-14T21:13:03.292Z,17.10
2022-10-14T21:15:49.881Z,17.00
2022-10-14T21:18:41.710Z,16.90
2022-10-14T21:21:45.357Z,16.90
2022-10-14T21:24:30.934Z,16.90
2022-10-14T21:27:16.656Z,16.80
2022-10-14T21:30:02.367Z,16.80
2022-10-14T21:32:47.967Z,16.80
2022-10-14T21:35:34.188Z,16.80
2022-10-14T21:38:19.777Z,16.70
2022-10-14T21:41:06.885Z,16.60
2022-10-14T21:43:55.175Z,16.60
2022-10-14T21:46:40.821Z,16.60
2022-10-14T21:49:26.560Z,16.50
2022-10-14T21:52:12.405Z,16.50
2022-10-14T21:54:57.811Z,16.50
2022-10-14T21:57:43.776Z,16.50
2022-10-14T22:00:30.046Z,16.40
2022-10-14T22:03:17.743Z,16.40
2022-10-14T22:06:06.978Z,16.30
2022-10-14T22:08:54.942Z,16.30
2022-10-14T22:11:41.806Z,16.30
2022-10-14T22:14:27.476Z,16.30
2022-10-14T22:17:13.146Z,16.20
2022-10-14T22:19:59.146Z,16.20
2022-10-14T22:22:45.383Z,16.20
2022-10-14T22:25:33.674Z,16.20
2022-10-14T22:28:19.158Z,16.10
2022-10-14T22:31:10.715Z,16.10
2022-10-14T22:33:56.391Z,16.10
2022-10-14T22:36:42.752Z,16.10
2022-10-14T22:39:28.160Z,16.00
2022-10-14T22:42:13.782Z,16.00
2022-10-14T22:44:59.240Z,16.00
2022-10-14T22:47:45.010Z,16.00
2022-10-14T22:50:30.682Z,16.00
2022-10-14T22:53:16.362Z,16.00
2022-10-14T22:56:02.906Z,16.00
2022-10-14T22:58:52.374Z,16.00
2022-10-14T23:01:39.333Z,16.00
2022-10-14T23:04:24.890Z,15.90
2022-10-14T23:07:10.802Z,16.00
2022-10-14T23:09:56.382Z,16.00
2022-10-14T23:12:42.124Z,16.00
2022-10-14T23:15:27.655Z,16.00
2022-10-14T23:18:13.359Z,16.00
2022-10-14T23:20:59.197Z,15.90
2022-10-14T23:23:46.292Z,15.90
2022-10-14T23:26:34.442Z,15.90
2022-10-14T23:29:20.395Z,15.90
2022-10-14T23:32:06.330Z,15.90
2022-10-14T23:34:52.334Z,15.80
2022-10-14T23:37:38.003Z,15.80
2022-10-14T23:40:23.758Z,15.70
2022-10-14T23:43:09.596Z,15.70
2022-10-14T23:45:55.335Z,15.80
2022-10-14T23:48:41.171Z,15.70
2022-10-14T23:51:26.783Z,15.80
2022-10-14T23:54:12.425Z,15.80
2022-10-14T23:56:58.187Z,15.70
2022-10-14T23:59:43.722Z,15.70
